createdAt,value
2022-10-02T00:05:24.650Z,7.10
2022-10-02T00:12:13.928Z,6.20
2022-10-02T00:18:40.675Z,7.40
2022-10-02T00:25:05.011Z,6.30
2022-10-02T00:31:30.957Z,6.20
2022-10-02T00:37:57.940Z,6.50
2022-10-02T00:44:29.209Z,6.00
2022-10-02T00:51:03.972Z,6.30
2022-10-02T00:57:46.757Z,5.50
2022-10-02T01:04:22.769Z,6.30
2022-10-02T01:10:47.193Z,5.70
2022-10-02T01:17:11.408Z,5.50
2022-10-02T01:23:35.732Z,5.50
2022-10-02T01:30:02.399Z,5.00
2022-10-02T01:36:26.713Z,4.70
2022-10-02T01:42:52.010Z,6.20
2022-10-02T01:56:37.177Z,5.50
2022-10-02T02:03:20.356Z,5.10
2022-10-02T02:10:14.113Z,5.00
2022-10-02T02:24:02.153Z,4.60
2022-10-02T02:30:28.382Z,4.50
2022-10-02T02:36:52.782Z,4.20
2022-10-02T02:43:17.231Z,5.70
2022-10-02T02:50:07.372Z,4.90
2022-10-02T02:56:45.485Z,4.60
2022-10-02T03:03:11.026Z,4.40
2022-10-02T03:09:35.319Z,4.30
2022-10-02T03:16:00.826Z,4.80
2022-10-02T03:22:30.815Z,3.80
2022-10-02T03:29:00.078Z,4.50
2022-10-02T03:35:24.349Z,4.00
2022-10-02T03:41:48.511Z,4.20
2022-10-02T03:48:12.745Z,3.60
2022-10-02T03:54:45.874Z,3.50
2022-10-02T04:01:14.775Z,3.00
2022-10-02T04:07:47.906Z,4.10
2022-10-02T04:14:17.669Z,4.30
2022-10-02T04:20:41.951Z,3.30
2022-10-02T04:27:06.278Z,3.50
2022-10-02T04:33:38.442Z,4.20
2022-10-02T04:40:05.738Z,3.70
2022-10-02T04:46:32.719Z,3.20
2022-10-02T04:52:55.943Z,3.20
2022-10-02T04:59:38.689Z,4.10
2022-10-02T05:06:21.125Z,3.20
2022-10-02T05:13:06.195Z,2.80
2022-10-02T05:19:42.383Z,2.40
2022-10-02T05:26:13.442Z,3.40
2022-10-02T05:32:47.723Z,3.80
2022-10-02T05:39:13.561Z,2.10
2022-10-02T05:45:42.949Z,3.00
2022-10-02T05:52:09.846Z,2.30
2022-10-02T05:58:37.135Z,2.10
2022-10-02T06:05:10.230Z,2.70
2022-10-02T06:11:37.422Z,3.30
2022-10-02T06:18:04.698Z,1.90
2022-10-02T06:24:35.062Z,5.10
2022-10-02T06:30:59.351Z,3.50
2022-10-02T06:37:21.920Z,3.10
2022-10-02T06:43:49.269Z,2.80
2022-10-02T06:50:18.147Z,4.20
2022-10-02T06:56:40.926Z,3.50
2022-10-02T07:03:03.331Z,2.00
2022-10-02T07:09:43.757Z,3.50
2022-10-02T07:16:12.924Z,2.60
2022-10-02T07:22:58.555Z,2.70
2022-10-02T07:29:26.989Z,1.80
2022-10-02T07:36:06.180Z,5.10
2022-10-02T07:42:59.704Z,1.90
2022-10-02T07:49:34.996Z,4.10
2022-10-02T07:56:05.014Z,4.30
2022-10-02T08:09:31.082Z,2.50
2022-10-02T08:15:55.661Z,2.60
2022-10-02T08:22:20.111Z,4.40
2022-10-02T08:28:59.471Z,5.00
2022-10-02T08:35:23.799Z,3.70
2022-10-02T08:41:48.173Z,2.90
2022-10-02T08:48:14.960Z,2.70
2022-10-02T08:54:39.666Z,6.40
2022-10-02T09:01:22.580Z,8.20
2022-10-02T09:07:52.779Z,3.60
2022-10-02T09:14:38.228Z,5.60
2022-10-02T09:21:02.692Z,4.40
2022-10-02T09:27:35.950Z,2.40
2022-10-02T09:34:08.174Z,2.60
2022-10-02T09:40:38.354Z,2.80
2022-10-02T09:47:17.902Z,2.40
2022-10-02T09:54:07.985Z,1.90
2022-10-02T10:00:44.094Z,2.80
2022-10-02T10:07:07.298Z,2.90
2022-10-02T10:13:29.191Z,3.70
2022-10-02T10:20:08.436Z,4.30
2022-10-02T10:26:41.353Z,2.80
2022-10-02T10:33:34.079Z,3.20
2022-10-02T10:39:58.407Z,1.90
2022-10-02T10:46:28.159Z,5.50
2022-10-02T10:53:02.434Z,5.80
2022-10-02T10:59:27.984Z,4.10
2022-10-02T11:05:55.793Z,4.70
2022-10-02T11:12:32.323Z,4.00
2022-10-02T11:19:03.038Z,2.70
2022-10-02T11:25:30.385Z,2.20
2022-10-02T11:32:32.749Z,2.50
2022-10-02T11:39:15.079Z,2.50
2022-10-02T11:45:39.639Z,4.30
2022-10-02T11:52:14.018Z,4.80
2022-10-02T11:58:43.223Z,3.80
2022-10-02T12:05:10.310Z,3.10
2022-10-02T12:11:46.584Z,3.90
2022-10-02T12:18:24.797Z,4.10
2022-10-02T12:24:48.584Z,3.00
2022-10-02T12:31:22.398Z,3.30
2022-10-02T12:37:48.289Z,2.20
2022-10-02T12:44:21.898Z,4.30
2022-10-02T12:50:47.490Z,3.50
2022-10-02T12:57:21.826Z,3.00
2022-10-02T13:04:16.491Z,3.90
2022-10-02T13:10:47.621Z,4.20
2022-10-02T13:17:27.010Z,4.20
2022-10-02T13:24:07.680Z,4.60
2022-10-02T13:30:41.052Z,4.30
2022-10-02T13:37:05.525Z,5.00
2022-10-02T13:43:27.865Z,4.20
2022-10-02T13:49:55.155Z,5.00
2022-10-02T13:56:25.523Z,7.40
2022-10-02T14:02:58.019Z,6.90
2022-10-02T14:09:31.455Z,7.50
2022-10-02T14:15:55.937Z,3.70
2022-10-02T14:22:32.404Z,7.50
2022-10-02T14:29:09.027Z,7.50
2022-10-02T14:35:39.725Z,4.90
2022-10-02T14:42:12.598Z,4.40
2022-10-02T14:48:38.587Z,4.20
2022-10-02T14:55:23.998Z,4.30
2022-10-02T15:02:00.176Z,4.90
2022-10-02T15:08:24.474Z,5.30
2022-10-02T15:14:57.607Z,5.10
2022-10-02T15:21:29.392Z,3.10
2022-10-02T15:28:24.236Z,2.50
2022-10-02T15:34:43.275Z,4.60
2022-10-02T15:41:16.727Z,2.70
2022-10-02T15:47:59.300Z,3.20
2022-10-02T15:54:26.743Z,2.30
2022-10-02T16:00:56.868Z,3.30
2022-10-02T16:07:24.050Z,4.20
2022-10-02T16:13:49.725Z,4.40
2022-10-02T16:20:14.146Z,3.10
2022-10-02T16:26:49.757Z,9.20
2022-10-02T16:33:19.767Z,3.70
2022-10-02T16:40:05.261Z,4.30
2022-10-02T16:46:29.689Z,4.70
2022-10-02T16:52:56.752Z,4.10
2022-10-02T16:59:41.674Z,4.10
2022-10-02T17:06:01.346Z,4.10
2022-10-02T17:12:39.766Z,4.80
2022-10-02T17:19:07.074Z,3.90
2022-10-02T17:25:32.948Z,3.50
2022-10-02T17:31:57.330Z,4.30
2022-10-02T17:38:37.865Z,2.90
2022-10-02T17:45:08.331Z,2.70
2022-10-02T17:51:52.323Z,3.80
2022-10-02T17:58:26.648Z,4.50
2022-10-02T18:05:07.822Z,3.90
2022-10-02T18:11:35.092Z,4.40
2022-10-02T18:24:20.727Z,4.40
2022-10-02T18:30:44.829Z,4.90
2022-10-02T18:37:15.140Z,5.50
2022-10-02T18:43:40.796Z,6.60
2022-10-02T18:50:14.455Z,7.70
2022-10-02T18:56:37.247Z,9.50
2022-10-02T19:03:15.180Z,11.30
2022-10-02T19:09:38.047Z,9.80
2022-10-02T19:16:02.443Z,8.50
2022-10-02T19:22:26.737Z,8.10
2022-10-02T19:28:51.056Z,6.20
2022-10-02T19:35:18.353Z,6.70
2022-10-02T19:41:43.702Z,6.20
2022-10-02T19:48:19.890Z,7.60
2022-10-02T19:54:59.822Z,4.30
2022-10-02T20:01:24.216Z,4.10
2022-10-02T20:07:48.472Z,5.80
2022-10-02T20:14:21.428Z,6.50
2022-10-02T20:20:45.803Z,4.70
2022-10-02T20:27:10.030Z,6.60
2022-10-02T20:33:39.982Z,4.50
2022-10-02T20:40:04.285Z,4.80
2022-10-02T20:46:34.172Z,5.90
2022-10-02T20:53:16.359Z,5.10
2022-10-02T20:59:40.393Z,5.30
2022-10-02T21:06:22.890Z,6.80
2022-10-02T21:12:45.930Z,5.10
2022-10-02T21:19:22.798Z,4.30
2022-10-02T21:25:55.096Z,4.80
2022-10-02T21:32:37.512Z,5.30
2022-10-02T21:39:03.801Z,4.10
2022-10-02T21:45:32.923Z,5.20
2022-10-02T21:51:58.782Z,5.10
2022-10-02T21:58:15.895Z,4.70
2022-10-02T22:04:55.166Z,4.50
2022-10-02T22:11:20.477Z,4.10
2022-10-02T22:17:50.482Z,4.70
2022-10-02T22:24:24.265Z,3.10
2022-10-02T22:30:50.545Z,4.70
2022-10-02T22:37:20.717Z,4.50
2022-10-02T22:43:47.823Z,2.80
2022-10-02T22:50:10.537Z,3.20
2022-10-02T22:56:35.333Z,4.10
2022-10-02T23:03:02.446Z,3.40
2022-10-02T23:09:35.915Z,2.80
2022-10-02T23:16:18.734Z,3.00
2022-10-02T23:22:54.854Z,3.10
2022-10-02T23:29:25.233Z,4.40
2022-10-02T23:36:01.896Z,2.40
2022-10-02T23:42:28.600Z,3.40
2022-10-02T23:49:02.029Z,3.40
2022-10-02T23:55:43.110Z,3.80
